sensor_id;sensor_type;location;lat;lon;timestamp;pressure;altitude;pressure_sealevel;temperature;humidity
63090;BME280;49174;43.198;27.824;2023-04-02T00:08:23;100355.47;;;10.50;88.22
63090;BME280;49174;43.198;27.824;2023-04-02T00:15:55;100380.38;;;10.45;86.65
63090;BME280;49174;43.198;27.824;2023-04-02T00:18:22;100370.00;;;10.42;86.77
63090;BME280;49174;43.198;27.824;2023-04-02T00:20:52;100378.28;;;10.41;84.88
63090;BME280;49174;43.198;27.824;2023-04-02T00:23:20;100376.00;;;10.44;86.15
63090;BME280;49174;43.198;27.824;2023-04-02T00:25:47;100378.28;;;10.41;85.26
63090;BME280;49174;43.198;27.824;2023-04-02T00:28:18;100379.94;;;10.42;84.52
63090;BME280;49174;43.198;27.824;2023-04-02T00:30:53;100384.91;;;10.38;85.00
63090;BME280;49174;43.198;27.824;2023-04-02T00:33:22;100396.75;;;10.37;84.82
63090;BME280;49174;43.198;27.824;2023-04-02T00:35:50;100393.81;;;10.32;83.98
63090;BME280;49174;43.198;27.824;2023-04-02T00:40:45;100393.16;;;10.23;84.25
63090;BME280;49174;43.198;27.824;2023-04-02T00:43:13;100387.75;;;10.23;83.08
63090;BME280;49174;43.198;27.824;2023-04-02T00:45:42;100407.66;;;10.22;84.57
63090;BME280;49174;43.198;27.824;2023-04-02T00:50:58;100397.28;;;10.19;84.38
63090;BME280;49174;43.198;27.824;2023-04-02T00:53:28;100404.75;;;10.17;85.16
63090;BME280;49174;43.198;27.824;2023-04-02T00:55:57;100400.38;;;10.16;85.83
63090;BME280;49174;43.198;27.824;2023-04-02T00:58:29;100401.66;;;10.20;84.29
63090;BME280;49174;43.198;27.824;2023-04-02T01:00:58;100407.63;;;10.16;84.28
63090;BME280;49174;43.198;27.824;2023-04-02T01:03:34;100405.75;;;10.03;84.52
63090;BME280;49174;43.198;27.824;2023-04-02T01:06:10;100415.66;;;10.02;85.55
63090;BME280;49174;43.198;27.824;2023-04-02T01:14:46;100406.50;;;9.90;86.47
63090;BME280;49174;43.198;27.824;2023-04-02T01:25:46;100405.47;;;9.91;86.74
63090;BME280;49174;43.198;27.824;2023-04-02T01:28:26;100410.00;;;9.84;86.59
63090;BME280;49174;43.198;27.824;2023-04-02T01:30:57;100415.59;;;9.82;87.70
63090;BME280;49174;43.198;27.824;2023-04-02T01:33:32;100405.91;;;9.95;87.58
63090;BME280;49174;43.198;27.824;2023-04-02T01:36:09;100413.34;;;9.93;86.58
63090;BME280;49174;43.198;27.824;2023-04-02T01:38:42;100405.91;;;9.95;85.17
63090;BME280;49174;43.198;27.824;2023-04-02T01:41:26;100407.16;;;9.99;86.87
63090;BME280;49174;43.198;27.824;2023-04-02T01:44:26;100410.84;;;9.91;87.71
63090;BME280;49174;43.198;27.824;2023-04-02T01:46:53;100409.22;;;9.97;86.85
63090;BME280;49174;43.198;27.824;2023-04-02T01:49:23;100406.56;;;10.03;86.30
63090;BME280;49174;43.198;27.824;2023-04-02T01:51:54;100403.03;;;10.03;85.49
63090;BME280;49174;43.198;27.824;2023-04-02T01:54:24;100396.78;;;10.02;86.23
63090;BME280;49174;43.198;27.824;2023-04-02T01:56:50;100409.03;;;10.05;85.66
63090;BME280;49174;43.198;27.824;2023-04-02T01:59:18;100408.63;;;10.08;87.03
63090;BME280;49174;43.198;27.824;2023-04-02T02:01:47;100413.44;;;10.13;85.99
63090;BME280;49174;43.198;27.824;2023-04-02T02:04:16;100409.72;;;10.20;85.53
63090;BME280;49174;43.198;27.824;2023-04-02T02:06:44;100414.50;;;10.18;84.82
63090;BME280;49174;43.198;27.824;2023-04-02T02:09:18;100410.38;;;10.22;85.12
63090;BME280;49174;43.198;27.824;2023-04-02T02:11:47;100413.28;;;10.27;85.25
63090;BME280;49174;43.198;27.824;2023-04-02T02:14:18;100410.81;;;10.33;83.92
63090;BME280;49174;43.198;27.824;2023-04-02T02:16:46;100414.16;;;10.35;83.35
63090;BME280;49174;43.198;27.824;2023-04-02T02:21:53;100413.16;;;10.42;83.74
63090;BME280;49174;43.198;27.824;2023-04-02T02:24:24;100411.69;;;10.46;82.65
63090;BME280;49174;43.198;27.824;2023-04-02T02:29:27;100409.22;;;10.45;82.33
63090;BME280;49174;43.198;27.824;2023-04-02T02:31:56;100418.34;;;10.50;81.78
63090;BME280;49174;43.198;27.824;2023-04-02T02:34:30;100422.09;;;10.56;81.99
63090;BME280;49174;43.198;27.824;2023-04-02T02:37:03;100414.84;;;10.57;81.61
63090;BME280;49174;43.198;27.824;2023-04-02T02:39:36;100403.63;;;10.60;81.27
63090;BME280;49174;43.198;27.824;2023-04-02T02:42:09;100419.41;;;10.56;81.54
63090;BME280;49174;43.198;27.824;2023-04-02T02:44:42;100413.38;;;10.61;82.27
63090;BME280;49174;43.198;27.824;2023-04-02T02:47:22;100407.56;;;10.64;81.49
63090;BME280;49174;43.198;27.824;2023-04-02T02:49:55;100402.38;;;10.49;82.31
63090;BME280;49174;43.198;27.824;2023-04-02T02:52:27;100406.94;;;10.55;81.91
63090;BME280;49174;43.198;27.824;2023-04-02T02:58:14;100414.19;;;10.61;80.76
63090;BME280;49174;43.198;27.824;2023-04-02T03:00:42;100408.38;;;10.58;81.00
63090;BME280;49174;43.198;27.824;2023-04-02T03:03:13;100416.28;;;10.59;80.77
63090;BME280;49174;43.198;27.824;2023-04-02T03:05:39;100412.53;;;10.60;80.72
63090;BME280;49174;43.198;27.824;2023-04-02T03:08:10;100412.56;;;10.54;81.62
63090;BME280;49174;43.198;27.824;2023-04-02T03:10:46;100415.84;;;10.56;82.68
63090;BME280;49174;43.198;27.824;2023-04-02T03:13:26;100413.38;;;10.54;82.56
63090;BME280;49174;43.198;27.824;2023-04-02T03:16:09;100417.31;;;10.58;82.65
63090;BME280;49174;43.198;27.824;2023-04-02T03:29:16;100417.53;;;10.63;82.15
63090;BME280;49174;43.198;27.824;2023-04-02T03:31:49;100410.06;;;10.65;81.16
63090;BME280;49174;43.198;27.824;2023-04-02T03:34:35;100405.09;;;10.69;81.59
63090;BME280;49174;43.198;27.824;2023-04-02T03:37:33;100400.31;;;10.64;81.76
63090;BME280;49174;43.198;27.824;2023-04-02T03:40:27;100396.81;;;10.70;81.00
63090;BME280;49174;43.198;27.824;2023-04-02T03:43:00;100390.34;;;10.71;81.28
63090;BME280;49174;43.198;27.824;2023-04-02T03:45:40;100407.59;;;10.70;81.14
63090;BME280;49174;43.198;27.824;2023-04-02T03:48:15;100396.16;;;10.68;82.00
63090;BME280;49174;43.198;27.824;2023-04-02T03:50:51;100400.31;;;10.64;81.26
63090;BME280;49174;43.198;27.824;2023-04-02T03:53:22;100417.13;;;10.60;81.91
63090;BME280;49174;43.198;27.824;2023-04-02T03:55:48;100408.59;;;10.69;81.58
63090;BME280;49174;43.198;27.824;2023-04-02T03:58:37;100424.00;;;10.76;83.27
63090;BME280;49174;43.198;27.824;2023-04-02T04:03:53;100423.16;;;10.82;83.26
63090;BME280;49174;43.198;27.824;2023-04-02T04:06:29;100425.66;;;10.83;82.97
63090;BME280;49174;43.198;27.824;2023-04-02T04:09:31;100430.84;;;10.91;83.01
63090;BME280;49174;43.198;27.824;2023-04-02T04:15:05;100426.09;;;10.93;81.48
63090;BME280;49174;43.198;27.824;2023-04-02T04:20:30;100426.28;;;10.92;81.07
63090;BME280;49174;43.198;27.824;2023-04-02T04:23:16;100412.38;;;10.88;80.95
63090;BME280;49174;43.198;27.824;2023-04-02T04:25:43;100431.06;;;10.90;79.92
63090;BME280;49174;43.198;27.824;2023-04-02T04:31:44;100437.09;;;11.05;78.61
63090;BME280;49174;43.198;27.824;2023-04-02T04:34:37;100438.34;;;11.16;79.07
63090;BME280;49174;43.198;27.824;2023-04-02T04:37:22;100427.75;;;11.14;79.31
63090;BME280;49174;43.198;27.824;2023-04-02T04:40:00;100438.94;;;11.11;79.34
63090;BME280;49174;43.198;27.824;2023-04-02T04:42:30;100442.69;;;11.10;78.83
63090;BME280;49174;43.198;27.824;2023-04-02T04:45:33;100453.91;;;11.21;78.40
63090;BME280;49174;43.198;27.824;2023-04-02T04:50:54;100465.13;;;11.24;78.34
63090;BME280;49174;43.198;27.824;2023-04-02T04:53:26;100476.34;;;11.28;80.91
63090;BME280;49174;43.198;27.824;2023-04-02T04:55:54;100477.19;;;11.35;81.05
63090;BME280;49174;43.198;27.824;2023-04-02T04:58:31;100486.34;;;11.34;79.42
63090;BME280;49174;43.198;27.824;2023-04-02T05:01:05;100475.13;;;11.37;79.98
63090;BME280;49174;43.198;27.824;2023-04-02T05:09:38;100483.19;;;11.50;79.65
63090;BME280;49174;43.198;27.824;2023-04-02T05:15:00;100484.44;;;11.54;79.42
63090;BME280;49174;43.198;27.824;2023-04-02T05:17:35;100491.50;;;11.62;78.74
63090;BME280;49174;43.198;27.824;2023-04-02T05:22:47;100489.00;;;11.60;78.87
63090;BME280;49174;43.198;27.824;2023-04-02T05:28:12;100487.16;;;11.54;80.03
63090;BME280;49174;43.198;27.824;2023-04-02T05:30:48;100484.63;;;11.66;78.54
63090;BME280;49174;43.198;27.824;2023-04-02T05:33:25;100500.81;;;11.73;80.68
63090;BME280;49174;43.198;27.824;2023-04-02T05:36:06;100492.13;;;11.71;78.22
63090;BME280;49174;43.198;27.824;2023-04-02T05:38:36;100502.09;;;11.70;78.11
63090;BME280;49174;43.198;27.824;2023-04-02T05:41:05;100497.28;;;11.72;78.26
63090;BME280;49174;43.198;27.824;2023-04-02T05:43:34;100501.25;;;11.63;78.36
63090;BME280;49174;43.198;27.824;2023-04-02T05:46:06;100512.72;;;11.65;79.96
63090;BME280;49174;43.198;27.824;2023-04-02T05:48:39;100515.38;;;11.72;78.60
63090;BME280;49174;43.198;27.824;2023-04-02T05:51:14;100520.16;;;11.70;78.79
63090;BME280;49174;43.198;27.824;2023-04-02T05:53:48;100523.91;;;11.82;77.47
63090;BME280;49174;43.198;27.824;2023-04-02T05:56:24;100532.66;;;11.84;77.71
63090;BME280;49174;43.198;27.824;2023-04-02T05:58:55;100538.25;;;11.89;78.15
63090;BME280;49174;43.198;27.824;2023-04-02T06:03:56;100537.84;;;11.99;78.31
63090;BME280;49174;43.198;27.824;2023-04-02T06:06:42;100545.72;;;12.07;77.17
63090;BME280;49174;43.198;27.824;2023-04-02T06:09:30;100539.03;;;12.16;77.21
63090;BME280;49174;43.198;27.824;2023-04-02T06:14:31;100537.34;;;12.28;76.91
63090;BME280;49174;43.198;27.824;2023-04-02T06:16:56;100526.69;;;12.34;76.71
63090;BME280;49174;43.198;27.824;2023-04-02T06:19:29;100537.72;;;12.45;77.19
63090;BME280;49174;43.198;27.824;2023-04-02T06:22:18;100521.88;;;12.49;77.68
63090;BME280;49174;43.198;27.824;2023-04-02T06:24:48;100517.47;;;12.55;76.22
63090;BME280;49174;43.198;27.824;2023-04-02T06:27:18;100513.66;;;12.69;76.44
63090;BME280;49174;43.198;27.824;2023-04-02T06:29:49;100520.72;;;12.70;74.35
63090;BME280;49174;43.198;27.824;2023-04-02T06:32:19;100513.41;;;12.77;75.51
63090;BME280;49174;43.198;27.824;2023-04-02T06:34:47;100511.25;;;12.86;74.06
63090;BME280;49174;43.198;27.824;2023-04-02T06:39:52;100519.06;;;13.07;73.70
63090;BME280;49174;43.198;27.824;2023-04-02T06:42:44;100519.78;;;13.21;73.54
63090;BME280;49174;43.198;27.824;2023-04-02T06:45:23;100523.59;;;13.45;71.38
63090;BME280;49174;43.198;27.824;2023-04-02T06:47:51;100525.84;;;13.48;70.67
63090;BME280;49174;43.198;27.824;2023-04-02T06:50:39;100537.41;;;13.37;70.74
63090;BME280;49174;43.198;27.824;2023-04-02T06:53:05;100549.75;;;13.33;71.10
63090;BME280;49174;43.198;27.824;2023-04-02T06:56:38;100551.84;;;13.31;70.86
63090;BME280;49174;43.198;27.824;2023-04-02T06:58:43;100546.44;;;13.24;71.61
63090;BME280;49174;43.198;27.824;2023-04-02T07:01:15;100551.88;;;13.24;72.57
63090;BME280;49174;43.198;27.824;2023-04-02T07:03:42;100551.00;;;13.30;72.55
63090;BME280;49174;43.198;27.824;2023-04-02T07:06:17;100551.75;;;13.44;71.50
63090;BME280;49174;43.198;27.824;2023-04-02T07:08:43;100545.72;;;13.67;71.27
63090;BME280;49174;43.198;27.824;2023-04-02T07:11:16;100552.75;;;13.75;71.37
63090;BME280;49174;43.198;27.824;2023-04-02T07:13:43;100536.13;;;14.08;70.68
63090;BME280;49174;43.198;27.824;2023-04-02T07:16:20;100551.53;;;14.33;67.46
63090;BME280;49174;43.198;27.824;2023-04-02T07:18:46;100543.22;;;14.27;67.58
63090;BME280;49174;43.198;27.824;2023-04-02T07:21:12;100543.06;;;14.04;67.64
63090;BME280;49174;43.198;27.824;2023-04-02T07:23:38;100543.22;;;14.09;68.56
63090;BME280;49174;43.198;27.824;2023-04-02T07:26:05;100549.72;;;14.26;68.08
63090;BME280;49174;43.198;27.824;2023-04-02T07:28:32;100547.53;;;14.35;68.48
63090;BME280;49174;43.198;27.824;2023-04-02T07:30:58;100551.50;;;14.51;68.68
63090;BME280;49174;43.198;27.824;2023-04-02T07:33:26;100547.47;;;14.60;66.69
63090;BME280;49174;43.198;27.824;2023-04-02T07:35:54;100559.91;;;14.49;67.27
63090;BME280;49174;43.198;27.824;2023-04-02T07:38:20;100556.41;;;14.42;66.94
63090;BME280;49174;43.198;27.824;2023-04-02T07:40:45;100568.88;;;14.50;66.46
63090;BME280;49174;43.198;27.824;2023-04-02T07:43:11;100565.47;;;14.36;67.10
63090;BME280;49174;43.198;27.824;2023-04-02T07:45:37;100565.78;;;14.46;67.41
63090;BME280;49174;43.198;27.824;2023-04-02T07:48:07;100571.34;;;14.33;66.59
63090;BME280;49174;43.198;27.824;2023-04-02T07:50:33;100571.13;;;14.35;66.39
63090;BME280;49174;43.198;27.824;2023-04-02T07:52:59;100586.22;;;14.49;66.07
63090;BME280;49174;43.198;27.824;2023-04-02T07:55:25;100582.84;;;14.53;66.45
63090;BME280;49174;43.198;27.824;2023-04-02T07:57:56;100586.78;;;14.51;67.04
63090;BME280;49174;43.198;27.824;2023-04-02T08:00:23;100585.84;;;14.27;66.74
63090;BME280;49174;43.198;27.824;2023-04-02T08:02:49;100596.06;;;14.25;66.97
63090;BME280;49174;43.198;27.824;2023-04-02T08:05:15;100592.53;;;14.24;66.08
63090;BME280;49174;43.198;27.824;2023-04-02T08:07:42;100589.66;;;14.19;66.79
63090;BME280;49174;43.198;27.824;2023-04-02T08:10:10;100592.09;;;14.27;66.98
63090;BME280;49174;43.198;27.824;2023-04-02T08:12:36;100586.00;;;14.32;66.43
63090;BME280;49174;43.198;27.824;2023-04-02T08:15:02;100592.00;;;14.34;66.46
63090;BME280;49174;43.198;27.824;2023-04-02T08:17:30;100597.28;;;14.29;66.24
63090;BME280;49174;43.198;27.824;2023-04-02T08:19:59;100603.09;;;14.33;66.78
63090;BME280;49174;43.198;27.824;2023-04-02T08:22:28;100609.72;;;14.37;66.06
63090;BME280;49174;43.198;27.824;2023-04-02T08:24:55;100614.25;;;14.43;65.94
63090;BME280;49174;43.198;27.824;2023-04-02T08:27:22;100611.94;;;14.46;65.91
63090;BME280;49174;43.198;27.824;2023-04-02T08:29:48;100612.94;;;14.52;65.42
63090;BME280;49174;43.198;27.824;2023-04-02T08:32:14;100615.94;;;14.62;65.90
63090;BME280;49174;43.198;27.824;2023-04-02T08:34:43;100616.03;;;14.74;65.37
63090;BME280;49174;43.198;27.824;2023-04-02T08:37:12;100614.19;;;14.86;64.71
63090;BME280;49174;43.198;27.824;2023-04-02T08:39:39;100610.22;;;15.19;63.38
63090;BME280;49174;43.198;27.824;2023-04-02T08:42:30;100614.88;;;15.30;63.06
63090;BME280;49174;43.198;27.824;2023-04-02T08:47:28;100615.09;;;15.71;63.01
63090;BME280;49174;43.198;27.824;2023-04-02T08:49:59;100617.06;;;16.05;63.14
63090;BME280;49174;43.198;27.824;2023-04-02T08:52:38;100619.91;;;16.11;60.32
63090;BME280;49174;43.198;27.824;2023-04-02T08:55:16;100626.16;;;15.99;62.03
63090;BME280;49174;43.198;27.824;2023-04-02T09:00:29;100632.19;;;16.01;61.24
63090;BME280;49174;43.198;27.824;2023-04-02T09:03:06;100638.81;;;16.05;60.09
63090;BME280;49174;43.198;27.824;2023-04-02T09:05:36;100630.28;;;15.90;60.34
63090;BME280;49174;43.198;27.824;2023-04-02T09:08:03;100627.78;;;15.77;60.87
63090;BME280;49174;43.198;27.824;2023-04-02T09:10:42;100632.66;;;15.98;61.09
63090;BME280;49174;43.198;27.824;2023-04-02T09:13:18;100636.22;;;16.11;60.01
63090;BME280;49174;43.198;27.824;2023-04-02T09:15:48;100637.84;;;16.35;58.47
63090;BME280;49174;43.198;27.824;2023-04-02T09:18:16;100640.81;;;16.45;58.60
63090;BME280;49174;43.198;27.824;2023-04-02T09:20:43;100655.63;;;16.26;58.56
63090;BME280;49174;43.198;27.824;2023-04-02T09:23:27;100647.59;;;16.07;58.88
63090;BME280;49174;43.198;27.824;2023-04-02T09:25:54;100665.69;;;16.02;59.29
63090;BME280;49174;43.198;27.824;2023-04-02T09:28:19;100661.84;;;15.79;60.13
63090;BME280;49174;43.198;27.824;2023-04-02T09:34:32;100652.63;;;15.69;59.56
63090;BME280;49174;43.198;27.824;2023-04-02T09:37:17;100648.59;;;15.71;59.65
63090;BME280;49174;43.198;27.824;2023-04-02T09:39:43;100647.75;;;15.71;59.41
63090;BME280;49174;43.198;27.824;2023-04-02T09:47:39;100642.69;;;15.74;59.56
63090;BME280;49174;43.198;27.824;2023-04-02T09:50:24;100653.47;;;15.93;58.29
63090;BME280;49174;43.198;27.824;2023-04-02T09:52:51;100645.44;;;16.09;58.49
63090;BME280;49174;43.198;27.824;2023-04-02T09:55:18;100655.38;;;16.04;58.50
63090;BME280;49174;43.198;27.824;2023-04-02T09:57:47;100638.81;;;16.29;58.31
63090;BME280;49174;43.198;27.824;2023-04-02T10:00:22;100646.38;;;16.50;57.47
63090;BME280;49174;43.198;27.824;2023-04-02T10:05:45;100655.75;;;17.47;54.49
63090;BME280;49174;43.198;27.824;2023-04-02T10:08:20;100644.63;;;17.37;54.71
63090;BME280;49174;43.198;27.824;2023-04-02T10:10:51;100652.00;;;17.36;53.79
63090;BME280;49174;43.198;27.824;2023-04-02T10:13:37;100648.78;;;17.39;53.21
63090;BME280;49174;43.198;27.824;2023-04-02T10:19:16;100644.69;;;17.71;53.14
63090;BME280;49174;43.198;27.824;2023-04-02T10:21:47;100663.34;;;17.45;53.45
63090;BME280;49174;43.198;27.824;2023-04-02T10:24:17;100669.22;;;17.25;52.98
63090;BME280;49174;43.198;27.824;2023-04-02T10:32:18;100674.25;;;17.16;54.45
63090;BME280;49174;43.198;27.824;2023-04-02T10:35:10;100674.09;;;16.83;54.65
63090;BME280;49174;43.198;27.824;2023-04-02T10:40:20;100688.91;;;16.63;56.49
63090;BME280;49174;43.198;27.824;2023-04-02T10:52:23;100709.84;;;16.39;56.16
63090;BME280;49174;43.198;27.824;2023-04-02T10:54:52;100703.94;;;16.30;56.56
63090;BME280;49174;43.198;27.824;2023-04-02T10:57:40;100703.47;;;16.45;57.65
63090;BME280;49174;43.198;27.824;2023-04-02T11:00:16;100702.75;;;16.62;57.44
63090;BME280;49174;43.198;27.824;2023-04-02T11:02:57;100707.94;;;16.75;56.30
63090;BME280;49174;43.198;27.824;2023-04-02T11:05:45;100705.00;;;16.53;56.02
63090;BME280;49174;43.198;27.824;2023-04-02T11:11:02;100693.63;;;16.68;57.59
63090;BME280;49174;43.198;27.824;2023-04-02T11:15:58;100696.44;;;17.08;53.94
63090;BME280;49174;43.198;27.824;2023-04-02T11:23:18;100688.75;;;17.34;53.22
63090;BME280;49174;43.198;27.824;2023-04-02T11:25:45;100705.50;;;17.54;52.67
63090;BME280;49174;43.198;27.824;2023-04-02T11:30:51;100693.03;;;17.87;50.96
63090;BME280;49174;43.198;27.824;2023-04-02T11:35:55;100685.09;;;17.85;50.26
63090;BME280;49174;43.198;27.824;2023-04-02T11:40:51;100696.63;;;17.76;51.31
63090;BME280;49174;43.198;27.824;2023-04-02T11:48:41;100696.00;;;18.53;50.03
63090;BME280;49174;43.198;27.824;2023-04-02T11:53:44;100692.28;;;19.20;47.28
63090;BME280;49174;43.198;27.824;2023-04-02T11:56:30;100696.78;;;19.58;48.36
63090;BME280;49174;43.198;27.824;2023-04-02T11:59:25;100694.75;;;19.22;46.29
63090;BME280;49174;43.198;27.824;2023-04-02T12:04:49;100696.88;;;19.91;45.10
63090;BME280;49174;43.198;27.824;2023-04-02T12:10:10;100709.22;;;19.93;43.45
63090;BME280;49174;43.198;27.824;2023-04-02T12:12:40;100696.88;;;20.23;43.28
63090;BME280;49174;43.198;27.824;2023-04-02T12:15:42;100701.44;;;20.49;43.34
63090;BME280;49174;43.198;27.824;2023-04-02T12:18:14;100695.72;;;20.51;42.42
63090;BME280;49174;43.198;27.824;2023-04-02T12:20:45;100683.66;;;20.52;41.67
63090;BME280;49174;43.198;27.824;2023-04-02T12:23:18;100697.69;;;20.23;40.71
63090;BME280;49174;43.198;27.824;2023-04-02T12:25:53;100689.81;;;19.68;42.53
63090;BME280;49174;43.198;27.824;2023-04-02T12:28:20;100690.41;;;19.48;43.51
63090;BME280;49174;43.198;27.824;2023-04-02T12:30:47;100695.31;;;19.24;44.15
63090;BME280;49174;43.198;27.824;2023-04-02T12:35:44;100692.41;;;18.86;45.54
63090;BME280;49174;43.198;27.824;2023-04-02T12:38:44;100696.63;;;18.77;43.99
63090;BME280;49174;43.198;27.824;2023-04-02T12:41:27;100697.56;;;18.49;44.26
63090;BME280;49174;43.198;27.824;2023-04-02T12:43:59;100703.31;;;18.30;45.29
63090;BME280;49174;43.198;27.824;2023-04-02T12:46:25;100707.94;;;18.30;48.48
63090;BME280;49174;43.198;27.824;2023-04-02T12:48:53;100710.03;;;18.23;50.50
63090;BME280;49174;43.198;27.824;2023-04-02T12:51:19;100708.94;;;18.07;51.63
63090;BME280;49174;43.198;27.824;2023-04-02T12:53:49;100709.34;;;17.99;52.54
63090;BME280;49174;43.198;27.824;2023-04-02T12:56:20;100715.69;;;17.88;52.68
63090;BME280;49174;43.198;27.824;2023-04-02T12:59:17;100711.72;;;17.78;54.06
63090;BME280;49174;43.198;27.824;2023-04-02T13:01:59;100712.56;;;17.67;53.67
63090;BME280;49174;43.198;27.824;2023-04-02T13:04:25;100718.44;;;17.59;53.90
63090;BME280;49174;43.198;27.824;2023-04-02T13:06:51;100715.25;;;17.50;54.58
63090;BME280;49174;43.198;27.824;2023-04-02T13:09:44;100714.34;;;17.45;54.41
63090;BME280;49174;43.198;27.824;2023-04-02T13:12:33;100707.50;;;17.59;54.72
63090;BME280;49174;43.198;27.824;2023-04-02T13:15:05;100701.75;;;17.72;54.68
63090;BME280;49174;43.198;27.824;2023-04-02T13:17:46;100705.06;;;17.74;53.91
63090;BME280;49174;43.198;27.824;2023-04-02T13:22:59;100698.25;;;17.89;54.46
63090;BME280;49174;43.198;27.824;2023-04-02T13:50:21;100700.75;;;18.07;53.11
63090;BME280;49174;43.198;27.824;2023-04-02T14:29:00;100707.09;;;17.79;54.03
63090;BME280;49174;43.198;27.824;2023-04-02T14:38:35;100694.34;;;17.84;53.40
63090;BME280;49174;43.198;27.824;2023-04-02T14:43:11;100695.03;;;17.92;53.49
63090;BME280;49174;43.198;27.824;2023-04-02T14:46:24;100701.16;;;17.99;52.59
63090;BME280;49174;43.198;27.824;2023-04-02T14:51:51;100703.06;;;17.98;53.84
63090;BME280;49174;43.198;27.824;2023-04-02T14:58:03;100699.69;;;18.08;53.61
63090;BME280;49174;43.198;27.824;2023-04-02T15:03:34;100696.09;;;18.07;53.15
63090;BME280;49174;43.198;27.824;2023-04-02T15:06:07;100697.59;;;18.15;53.62
63090;BME280;49174;43.198;27.824;2023-04-02T15:13:55;100692.72;;;18.34;51.76
63090;BME280;49174;43.198;27.824;2023-04-02T15:16:23;100697.50;;;18.44;51.94
63090;BME280;49174;43.198;27.824;2023-04-02T15:18:54;100696.09;;;18.41;52.09
63090;BME280;49174;43.198;27.824;2023-04-02T15:33:27;100736.91;;;18.31;54.53
63090;BME280;49174;43.198;27.824;2023-04-02T15:39:24;100741.38;;;18.20;54.73
63090;BME280;49174;43.198;27.824;2023-04-02T15:51:03;100742.09;;;17.70;55.74
63090;BME280;49174;43.198;27.824;2023-04-02T15:56:04;100742.53;;;17.50;56.57
63090;BME280;49174;43.198;27.824;2023-04-02T16:01:32;100743.63;;;17.37;56.12
63090;BME280;49174;43.198;27.824;2023-04-02T16:18:32;100758.88;;;16.63;58.21
63090;BME280;49174;43.198;27.824;2023-04-02T16:21:02;100766.56;;;16.54;58.36
63090;BME280;49174;43.198;27.824;2023-04-02T17:51:39;100886.13;;;12.30;79.51
63090;BME280;49174;43.198;27.824;2023-04-02T17:54:23;100898.19;;;12.27;79.73
63090;BME280;49174;43.198;27.824;2023-04-02T17:57:11;100894.00;;;12.18;79.59
63090;BME280;49174;43.198;27.824;2023-04-02T18:05:43;100910.22;;;11.70;82.88
63090;BME280;49174;43.198;27.824;2023-04-02T18:22:40;100903.88;;;11.91;82.62
63090;BME280;49174;43.198;27.824;2023-04-02T18:30:34;100916.34;;;11.85;82.59
63090;BME280;49174;43.198;27.824;2023-04-02T18:44:15;100920.00;;;11.71;84.09
63090;BME280;49174;43.198;27.824;2023-04-02T18:46:45;100929.50;;;11.60;85.00
63090;BME280;49174;43.198;27.824;2023-04-02T20:04:56;100929.66;;;11.24;85.34
63090;BME280;49174;43.198;27.824;2023-04-02T20:07:21;100931.69;;;11.15;86.26
63090;BME280;49174;43.198;27.824;2023-04-02T20:09:47;100927.06;;;11.09;85.92
63090;BME280;49174;43.198;27.824;2023-04-02T20:12:13;100928.34;;;11.13;86.16
63090;BME280;49174;43.198;27.824;2023-04-02T20:14:38;100927.88;;;11.03;86.01
63090;BME280;49174;43.198;27.824;2023-04-02T20:17:04;100940.03;;;10.92;85.65
63090;BME280;49174;43.198;27.824;2023-04-02T20:19:29;100940.78;;;10.86;85.96
63090;BME280;49174;43.198;27.824;2023-04-02T20:21:55;100951.38;;;10.88;87.51
63090;BME280;49174;43.198;27.824;2023-04-02T20:24:20;100953.78;;;10.76;86.55
63090;BME280;49174;43.198;27.824;2023-04-02T20:26:46;100959.31;;;10.68;88.15
63090;BME280;49174;43.198;27.824;2023-04-02T20:29:11;100958.09;;;10.70;90.76
63090;BME280;49174;43.198;27.824;2023-04-02T20:31:37;100953.69;;;10.69;92.07
63090;BME280;49174;43.198;27.824;2023-04-02T20:34:03;100955.78;;;10.67;92.41
63090;BME280;49174;43.198;27.824;2023-04-02T20:36:30;100956.06;;;10.58;91.72
63090;BME280;49174;43.198;27.824;2023-04-02T20:38:56;100949.84;;;10.57;93.33
63090;BME280;49174;43.198;27.824;2023-04-02T20:41:22;100965.13;;;10.50;93.57
63090;BME280;49174;43.198;27.824;2023-04-02T20:43:48;100958.88;;;10.49;94.41
63090;BME280;49174;43.198;27.824;2023-04-02T20:46:14;100956.84;;;10.51;93.91
63090;BME280;49174;43.198;27.824;2023-04-02T20:48:40;100957.28;;;10.55;91.51
63090;BME280;49174;43.198;27.824;2023-04-02T20:51:08;100951.75;;;10.42;91.20
63090;BME280;49174;43.198;27.824;2023-04-02T20:53:36;100948.53;;;10.32;91.96
63090;BME280;49174;43.198;27.824;2023-04-02T20:58:38;100941.91;;;10.19;92.54
63090;BME280;49174;43.198;27.824;2023-04-02T21:01:10;100952.91;;;10.18;93.15
63090;BME280;49174;43.198;27.824;2023-04-02T21:03:37;100949.66;;;10.07;93.12
63090;BME280;49174;43.198;27.824;2023-04-02T21:06:06;100948.16;;;10.05;92.76
63090;BME280;49174;43.198;27.824;2023-04-02T21:08:36;100964.72;;;10.02;92.94
63090;BME280;49174;43.198;27.824;2023-04-02T21:11:04;100973.56;;;9.96;92.83
63090;BME280;49174;43.198;27.824;2023-04-02T21:13:30;100972.63;;;9.89;92.52
63090;BME280;49174;43.198;27.824;2023-04-02T21:15:57;100972.09;;;9.78;91.90
63090;BME280;49174;43.198;27.824;2023-04-02T21:18:24;100971.06;;;9.65;92.78
63090;BME280;49174;43.198;27.824;2023-04-02T21:47:49;100956.56;;;9.80;94.27
63090;BME280;49174;43.198;27.824;2023-04-02T21:50:15;100947.56;;;9.73;95.05